Time;durP1;ratioP1;P1;durP2;ratioP2;P2;SDS_P1;SDS_P2;PMS_P1;PMS_P2;Temp;Humidity;BMP_temperature;BMP_pressure;BME280_temperature;BME280_humidity;BME280_pressure;Samples;Min_cycle;Max_cycle;Signal;HPM_P1;HPM_P2
2023/09/21 00:00:59;;;;;;;3.25;0.90;;;;;;;15.54;94.92;97550.81;4139898;28;20213;-47
2023/09/21 00:03:02;;;;;;;1.00;1.00;;;;;;;15.49;94.72;97545.41;4122073;28;20241;-45
2023/09/21 00:05:05;;;;;;;9.20;1.15;;;;;;;15.45;94.44;97552.66;4122129;28;20260;-46
2023/09/21 00:07:06;;;;;;;1.38;1.10;;;;;;;15.45;94.63;97547.97;4118992;28;20206;-46
2023/09/21 00:09:09;;;;;;;1.02;0.80;;;;;;;15.54;95.00;97542.53;4122784;28;20669;-46
2023/09/21 00:11:11;;;;;;;7.82;0.85;;;;;;;15.53;94.90;97541.75;4139168;28;20216;-46
2023/09/21 00:13:12;;;;;;;0.68;0.68;;;;;;;15.49;95.56;97537.94;4122463;28;20206;-47
2023/09/21 00:15:17;;;;;;;1.40;1.00;;;;;;;15.47;95.64;97540.19;4123889;28;20241;-46
2023/09/21 00:17:19;;;;;;;1.23;1.00;;;;;;;15.41;95.71;97535.91;4109442;28;20238;-47
2023/09/21 00:19:23;;;;;;;0.70;0.70;;;;;;;15.31;95.66;97536.03;4119436;28;20219;-47
2023/09/21 00:21:25;;;;;;;1.98;0.80;;;;;;;15.25;96.23;97531.78;4138931;28;20201;-46
2023/09/21 00:23:27;;;;;;;0.80;0.80;;;;;;;15.28;96.54;97531.16;4119576;28;20210;-45
2023/09/21 00:25:30;;;;;;;0.90;0.80;;;;;;;15.25;96.22;97531.78;4138288;28;20232;-46
2023/09/21 00:27:33;;;;;;;1.05;0.93;;;;;;;15.23;95.99;97527.69;4121813;28;20205;-47
2023/09/21 00:29:36;;;;;;;1.05;0.90;;;;;;;15.19;96.09;97521.13;4120834;28;20563;-47
2023/09/21 00:31:38;;;;;;;1.23;1.00;;;;;;;15.26;96.19;97516.03;4121726;28;20632;-46
2023/09/21 00:33:40;;;;;;;0.73;0.73;;;;;;;15.21;95.48;97516.94;4121645;28;20272;-47
2023/09/21 00:35:42;;;;;;;1.70;0.80;;;;;;;15.22;96.01;97515.81;4119996;28;20293;-48
2023/09/21 00:37:46;;;;;;;0.90;0.82;;;;;;;15.21;95.97;97505.94;4120610;28;20800;-45
2023/09/21 00:39:48;;;;;;;1.20;0.90;;;;;;;15.17;96.04;97518.66;4137572;28;20228;-46
2023/09/21 00:41:50;;;;;;;0.98;0.73;;;;;;;15.18;96.24;97509.31;4120969;28;20241;-46
2023/09/21 00:43:54;;;;;;;0.90;0.90;;;;;;;15.14;96.17;97501.94;4121399;28;20201;-45
2023/09/21 00:45:58;;;;;;;0.80;0.80;;;;;;;15.08;96.69;97509.47;4134419;28;20330;-46
2023/09/21 00:48:01;;;;;;;0.80;0.80;;;;;;;15.10;96.94;97506.44;4122226;28;20676;-46
2023/09/21 00:50:09;;;;;;;8.23;1.08;;;;;;;15.07;96.56;97502.34;4121373;28;20208;-45
2023/09/21 00:52:12;;;;;;;1.77;1.42;;;;;;;15.09;96.75;97499.28;4138614;28;20213;-45
2023/09/21 00:54:15;;;;;;;0.77;0.77;;;;;;;15.07;96.53;97496.81;4126156;28;20365;-47
2023/09/21 00:56:18;;;;;;;3.33;0.93;;;;;;;14.98;96.93;97504.16;4123871;28;20210;-47
2023/09/21 00:58:22;;;;;;;2.72;0.80;;;;;;;15.01;97.04;97503.53;4134652;28;20236;-46
2023/09/21 01:00:25;;;;;;;1.10;1.10;;;;;;;15.03;96.71;97501.28;4116486;28;20394;-46
2023/09/21 01:02:27;;;;;;;1.05;0.98;;;;;;;14.99;96.97;97492.03;4117649;28;20210;-47
2023/09/21 01:04:29;;;;;;;2.25;0.70;;;;;;;15.01;96.86;97494.44;4139397;28;20232;-47
2023/09/21 01:06:33;;;;;;;2.03;1.00;;;;;;;14.99;97.06;97489.25;4122382;28;20240;-45
2023/09/21 01:08:34;;;;;;;1.60;1.00;;;;;;;14.99;97.12;97491.19;4140434;28;20677;-46
2023/09/21 01:10:41;;;;;;;1.23;0.93;;;;;;;15.05;97.15;97493.56;4124266;28;20244;-45
2023/09/21 01:12:44;;;;;;;1.73;0.95;;;;;;;15.07;96.95;97487.72;4123675;28;20210;-47
2023/09/21 01:14:46;;;;;;;4.10;1.15;;;;;;;15.08;96.62;97490.19;4120949;28;20265;-46
2023/09/21 01:16:47;;;;;;;0.93;0.90;;;;;;;15.07;96.28;97493.25;4120751;28;20311;-46
2023/09/21 01:18:52;;;;;;;1.30;0.90;;;;;;;15.05;96.16;97492.72;4138780;28;20969;-47
2023/09/21 01:20:55;;;;;;;2.13;0.73;;;;;;;15.11;95.98;97488.78;4112947;28;20278;-46
2023/09/21 01:23:35;;;;;;;1.10;1.00;;;;;;;15.04;95.83;97491.91;4131139;28;20572;-45
2023/09/21 01:25:41;;;;;;;0.82;0.63;;;;;;;14.98;95.57;97487.63;4125165;28;20305;-46
2023/09/21 01:27:43;;;;;;;0.73;0.73;;;;;;;14.96;95.75;97489.06;4129936;28;20216;-45
2023/09/21 01:29:45;;;;;;;1.23;0.90;;;;;;;14.94;95.80;97492.09;4146793;28;20221;-46
2023/09/21 01:31:50;;;;;;;1.00;0.88;;;;;;;14.99;96.27;97489.25;4131268;28;20265;-47
2023/09/21 01:33:51;;;;;;;1.27;0.80;;;;;;;14.90;97.84;97487.50;4126745;28;20269;-45
2023/09/21 01:35:56;;;;;;;1.25;0.88;;;;;;;14.90;98.07;97473.72;4138587;28;20316;-46
2023/09/21 01:37:58;;;;;;;2.05;0.80;;;;;;;14.80;98.18;97480.25;4124056;28;20236;-46
2023/09/21 01:40:00;;;;;;;1.52;1.08;;;;;;;14.87;98.35;97477.91;4125881;28;20210;-46
2023/09/21 01:42:02;;;;;;;0.98;0.90;;;;;;;14.93;98.63;97473.94;4124344;28;20217;-46
2023/09/21 01:44:04;;;;;;;0.65;0.60;;;;;;;14.95;98.42;97482.72;4126591;28;20214;-46
2023/09/21 01:46:06;;;;;;;1.35;1.23;;;;;;;15.01;98.45;97481.50;4123288;28;20198;-47
2023/09/21 01:48:09;;;;;;;2.42;1.42;;;;;;;15.05;99.26;97474.28;4139636;28;20205;-47
2023/09/21 01:50:12;;;;;;;0.73;0.63;;;;;;;15.04;98.54;97474.56;4136851;28;20229;-48
2023/09/21 01:52:13;;;;;;;5.47;0.80;;;;;;;15.08;99.28;97476.41;4122692;28;22405;-45
2023/09/21 01:54:15;;;;;;;1.25;1.15;;;;;;;15.09;99.29;97469.78;4121198;28;20474;-48
2023/09/21 01:56:17;;;;;;;0.98;0.88;;;;;;;15.10;99.24;97467.84;4141070;28;20666;-45
2023/09/21 01:58:23;;;;;;;0.98;0.80;;;;;;;15.12;99.19;97460.91;4142810;28;20221;-47
2023/09/21 02:00:25;;;;;;;1.20;0.70;;;;;;;15.13;98.79;97462.53;4123888;28;20246;-45
2023/09/21 02:02:27;;;;;;;1.20;0.98;;;;;;;15.20;99.21;97451.94;4144574;28;20262;-46
2023/09/21 02:04:29;;;;;;;1.08;0.98;;;;;;;15.23;98.68;97445.78;4146008;28;20251;-46
2023/09/21 02:06:31;;;;;;;0.85;0.80;;;;;;;15.19;98.71;97450.31;4126151;28;20624;-47
2023/09/21 02:08:33;;;;;;;2.55;1.25;;;;;;;15.17;98.71;97441.50;4141194;28;20333;-45
2023/09/21 02:10:36;;;;;;;1.10;0.70;;;;;;;15.19;99.16;97444.78;4125829;28;20214;-47
2023/09/21 02:12:39;;;;;;;1.52;1.17;;;;;;;15.20;99.19;97443.66;4120713;28;20210;-46
2023/09/21 02:14:42;;;;;;;1.10;0.73;;;;;;;15.16;98.96;97428.84;4125083;28;20236;-46
2023/09/21 02:16:45;;;;;;;1.77;0.90;;;;;;;15.21;99.35;97437.03;4122467;28;20210;-45
2023/09/21 02:18:47;;;;;;;0.77;0.73;;;;;;;15.13;99.03;97435.00;4139216;28;20620;-45
2023/09/21 02:20:49;;;;;;;1.40;1.23;;;;;;;15.10;98.79;97430.06;4122181;28;20202;-46
2023/09/21 02:22:57;;;;;;;1.05;0.77;;;;;;;15.16;99.29;97428.06;4124074;28;20202;-49
2023/09/21 02:24:59;;;;;;;1.33;0.93;;;;;;;15.11;99.02;97425.38;4122819;28;20596;-47
2023/09/21 02:27:01;;;;;;;1.40;0.85;;;;;;;15.09;99.20;97422.94;4121494;28;20209;-47
2023/09/21 02:29:04;;;;;;;1.02;0.90;;;;;;;15.07;99.23;97414.16;4122725;28;20293;-46
2023/09/21 02:31:12;;;;;;;0.90;0.80;;;;;;;15.08;98.85;97404.78;4122755;28;20233;-46
2023/09/21 02:33:19;;;;;;;2.80;1.02;;;;;;;15.10;99.17;97419.03;4124101;28;20209;-46
2023/09/21 02:35:24;;;;;;;0.93;0.60;;;;;;;15.09;98.83;97416.63;4139173;28;20283;-46
2023/09/21 02:37:26;;;;;;;0.70;0.70;;;;;;;15.10;99.19;97413.53;4138590;28;20220;-46
2023/09/21 02:39:28;;;;;;;1.35;0.80;;;;;;;15.11;98.91;97409.66;4124335;28;20206;-46
2023/09/21 02:41:30;;;;;;;0.98;0.80;;;;;;;15.10;99.88;97410.78;4123195;28;20218;-46
2023/09/21 02:43:32;;;;;;;0.77;0.77;;;;;;;15.26;99.36;97406.63;4136249;28;20274;-47
2023/09/21 02:45:36;;;;;;;1.02;0.90;;;;;;;15.10;99.14;97413.53;4138681;28;20229;-46
2023/09/21 02:47:39;;;;;;;1.00;0.88;;;;;;;15.15;99.84;97410.69;4138333;28;20214;-46
2023/09/21 02:49:41;;;;;;;0.93;0.88;;;;;;;15.10;99.90;97408.03;4124275;28;20482;-46
2023/09/21 02:51:44;;;;;;;0.50;0.50;;;;;;;15.02;100.00;97403.22;4128278;28;20633;-46
2023/09/21 02:53:46;;;;;;;1.00;0.90;;;;;;;15.15;100.00;97393.31;4132562;28;20708;-47
2023/09/21 02:55:51;;;;;;;0.70;0.70;;;;;;;15.12;100.00;97394.78;4144509;28;20225;-46
2023/09/21 02:58:04;;;;;;;0.73;0.73;;;;;;;15.24;100.00;97386.78;4144380;28;20229;-45
2023/09/21 03:00:26;;;;;;;1.52;0.98;;;;;;;14.96;100.00;97385.16;4145423;28;20209;-45
2023/09/21 03:02:29;;;;;;;1.25;0.90;;;;;;;14.93;100.00;97380.28;4128779;28;20206;-45
2023/09/21 03:04:32;;;;;;;6.70;0.88;;;;;;;14.96;100.00;97382.41;4138840;28;20291;-46
2023/09/21 03:06:35;;;;;;;1.85;0.88;;;;;;;15.11;100.00;97382.09;4136613;28;20628;-47
2023/09/21 03:08:38;;;;;;;0.50;0.50;;;;;;;15.25;100.00;97377.44;4135281;28;20245;-46
2023/09/21 03:10:41;;;;;;;1.08;0.80;;;;;;;15.18;100.00;97360.50;4134237;28;20297;-46
2023/09/21 03:12:43;;;;;;;0.88;0.60;;;;;;;15.23;100.00;97374.13;4136741;28;20285;-46
2023/09/21 03:14:46;;;;;;;0.70;0.70;;;;;;;14.90;100.00;97367.09;4123016;28;20597;-45
2023/09/21 03:16:49;;;;;;;0.95;0.70;;;;;;;14.83;100.00;97374.94;4135446;28;20205;-47
2023/09/21 03:18:51;;;;;;;0.70;0.70;;;;;;;14.79;100.00;97362.94;4121253;28;20237;-46
2023/09/21 03:20:53;;;;;;;0.77;0.77;;;;;;;14.91;100.00;97359.66;4137125;28;20934;-45
2023/09/21 03:22:57;;;;;;;3.40;0.88;;;;;;;14.95;100.00;97361.50;4138504;28;20626;-46
2023/09/21 03:25:00;;;;;;;0.60;0.60;;;;;;;15.06;100.00;97349.16;4137656;28;20232;-47
2023/09/21 03:27:02;;;;;;;1.77;0.80;;;;;;;15.08;100.00;97352.41;4137883;28;20274;-48
2023/09/21 03:29:12;;;;;;;0.75;0.70;;;;;;;15.16;100.00;97357.19;4117792;28;20300;-46
2023/09/21 03:31:16;;;;;;;1.52;0.93;;;;;;;15.08;100.00;97348.84;4121724;28;20201;-47
2023/09/21 03:33:20;;;;;;;0.70;0.70;;;;;;;15.20;100.00;97341.69;4123614;28;20224;-46
2023/09/21 03:35:26;;;;;;;0.57;0.57;;;;;;;15.15;100.00;97336.28;4123485;28;20233;-45
2023/09/21 03:37:28;;;;;;;0.90;0.60;;;;;;;15.21;100.00;97339.75;4123254;28;20308;-46
2023/09/21 03:39:29;;;;;;;0.85;0.73;;;;;;;15.25;100.00;97327.81;4125558;28;22338;-46
2023/09/21 03:41:32;;;;;;;0.95;0.80;;;;;;;15.21;100.00;97323.19;4121900;28;20260;-46
2023/09/21 03:43:34;;;;;;;1.02;0.60;;;;;;;15.29;100.00;97328.81;4118075;28;20220;-45
2023/09/21 03:45:37;;;;;;;2.10;0.80;;;;;;;15.17;100.00;97320.25;4118683;28;20237;-45
2023/09/21 03:47:40;;;;;;;1.25;0.80;;;;;;;15.30;100.00;97321.38;4134803;28;20210;-48
2023/09/21 03:49:44;;;;;;;1.17;1.02;;;;;;;15.17;100.00;97308.44;4120691;28;20214;-46
2023/09/21 03:51:47;;;;;;;0.68;0.68;;;;;;;15.18;100.00;97305.38;4122997;28;20202;-45
2023/09/21 03:53:49;;;;;;;5.32;0.77;;;;;;;15.30;100.00;97302.88;4122782;28;20292;-47
2023/09/21 03:55:51;;;;;;;0.95;0.88;;;;;;;15.28;100.00;97309.81;4121926;28;20236;-46
2023/09/21 03:57:53;;;;;;;1.58;0.57;;;;;;;15.24;100.00;97306.88;4136348;28;20825;-46
2023/09/21 03:59:57;;;;;;;1.63;0.95;;;;;;;15.20;100.00;97300.34;4122462;28;20210;-45
2023/09/21 04:01:59;;;;;;;0.60;0.60;;;;;;;15.20;100.00;97294.00;4122158;28;20221;-45
2023/09/21 04:04:06;;;;;;;0.68;0.68;;;;;;;15.17;100.00;97300.97;4121676;28;20214;-46
2023/09/21 04:06:09;;;;;;;0.80;0.80;;;;;;;15.17;100.00;97287.19;4121722;28;20309;-47
2023/09/21 04:08:10;;;;;;;0.88;0.63;;;;;;;15.18;100.00;97294.34;4102183;28;20657;-46
2023/09/21 04:10:12;;;;;;;0.70;0.55;;;;;;;15.23;100.00;97293.41;4118009;28;20221;-45
2023/09/21 04:12:14;;;;;;;1.02;0.98;;;;;;;15.23;100.00;97296.16;4136117;28;21037;-46
2023/09/21 04:14:16;;;;;;;1.33;0.93;;;;;;;15.17;100.00;97303.72;4123027;28;20252;-47
2023/09/21 04:16:20;;;;;;;1.10;1.00;;;;;;;15.21;100.00;97301.97;4122052;28;20221;-46
2023/09/21 04:18:22;;;;;;;1.00;0.90;;;;;;;15.10;100.00;97306.06;4121211;28;20321;-46
2023/09/21 04:20:33;;;;;;;0.73;0.68;;;;;;;15.11;100.00;97302.19;4137334;28;20928;-48
2023/09/21 04:22:36;;;;;;;1.30;0.82;;;;;;;15.07;100.00;97311.38;4139047;28;20213;-48
2023/09/21 04:24:38;;;;;;;1.55;0.93;;;;;;;15.20;100.00;97303.13;4123007;28;20244;-45
2023/09/21 04:26:42;;;;;;;1.15;0.90;;;;;;;15.11;100.00;97306.91;4141551;28;20323;-46
2023/09/21 04:28:44;;;;;;;1.02;0.85;;;;;;;14.97;100.00;97304.16;4117547;28;20214;-47
2023/09/21 04:30:47;;;;;;;1.25;0.73;;;;;;;14.95;100.00;97295.38;4126337;28;20241;-46
2023/09/21 04:32:50;;;;;;;1.13;1.05;;;;;;;14.98;100.00;97303.06;4109713;28;20210;-46
2023/09/21 04:34:52;;;;;;;1.23;1.10;;;;;;;14.92;100.00;97296.00;4122484;28;20840;-47
2023/09/21 04:36:53;;;;;;;1.55;0.60;;;;;;;14.90;100.00;97312.00;4102947;28;20214;-46
2023/09/21 04:38:55;;;;;;;0.73;0.73;;;;;;;14.92;100.00;97296.00;4107195;28;20227;-46
2023/09/21 04:41:00;;;;;;;1.27;1.05;;;;;;;14.87;100.00;97309.06;4102620;28;20290;-46
2023/09/21 04:43:02;;;;;;;0.93;0.80;;;;;;;14.84;100.00;97299.47;4108347;28;20206;-46
2023/09/21 04:45:09;;;;;;;1.77;1.17;;;;;;;14.81;100.00;97300.09;4109537;28;20266;-46
2023/09/21 04:47:11;;;;;;;1.33;1.02;;;;;;;14.74;100.00;97296.94;4108800;28;20241;-47
2023/09/21 04:49:13;;;;;;;1.38;1.27;;;;;;;14.83;100.00;97302.53;4108501;28;20206;-46
2023/09/21 04:51:15;;;;;;;0.60;0.60;;;;;;;14.73;100.00;97309.06;4102710;28;20219;-46
2023/09/21 04:53:17;;;;;;;1.20;1.10;;;;;;;14.88;100.00;97306.00;4109289;28;20215;-47
2023/09/21 04:55:19;;;;;;;0.82;0.80;;;;;;;14.72;100.00;97301.13;4109809;28;20230;-46
2023/09/21 04:57:22;;;;;;;1.92;0.80;;;;;;;14.67;100.00;97295.69;4109312;28;20237;-47
2023/09/21 04:59:24;;;;;;;1.30;0.55;;;;;;;14.73;100.00;97299.97;4103009;28;20298;-46
2023/09/21 05:01:27;;;;;;;1.45;0.80;;;;;;;14.86;100.00;97299.16;4121124;28;20285;-46
2023/09/21 05:03:29;;;;;;;0.63;0.63;;;;;;;14.80;100.00;97287.44;4108858;28;20214;-46
2023/09/21 05:05:31;;;;;;;1.95;0.85;;;;;;;14.77;100.00;97282.53;4126704;28;20232;-46
2023/09/21 05:07:35;;;;;;;1.75;0.80;;;;;;;14.59;100.00;97286.22;4123434;28;20268;-45
2023/09/21 05:09:37;;;;;;;1.63;1.13;;;;;;;14.59;100.00;97294.50;4104067;28;20231;-45
2023/09/21 05:11:38;;;;;;;1.98;1.05;;;;;;;14.77;100.00;97290.81;4104459;28;20221;-45
2023/09/21 05:13:41;;;;;;;3.15;0.90;;;;;;;14.69;100.00;97296.22;4120539;28;20210;-45
2023/09/21 05:15:45;;;;;;;1.02;0.77;;;;;;;14.70;100.00;97297.84;4105437;28;20265;-45
2023/09/21 05:17:47;;;;;;;0.60;0.60;;;;;;;14.72;100.00;97290.94;4125535;28;20206;-45
2023/09/21 05:19:50;;;;;;;1.48;0.63;;;;;;;14.91;100.00;97302.63;4110540;28;20277;-45
2023/09/21 05:21:56;;;;;;;1.00;0.90;;;;;;;14.81;100.00;97308.34;4101777;28;20605;-45
2023/09/21 05:23:58;;;;;;;1.30;1.02;;;;;;;14.74;100.00;97309.88;4109827;28;20246;-46
2023/09/21 05:26:00;;;;;;;0.88;0.88;;;;;;;14.72;100.00;97307.44;4109049;28;20230;-45
2023/09/21 05:28:03;;;;;;;1.25;0.98;;;;;;;14.72;100.00;97307.44;4111067;28;20218;-46
2023/09/21 05:30:05;;;;;;;0.82;0.82;;;;;;;14.76;100.00;97302.94;4124587;28;20603;-46
2023/09/21 05:32:07;;;;;;;1.40;0.98;;;;;;;14.81;100.00;97299.25;4119081;28;20241;-45
2023/09/21 05:34:09;;;;;;;2.38;0.93;;;;;;;14.95;100.00;97300.91;4136881;28;20224;-45
2023/09/21 05:36:11;;;;;;;1.42;1.33;;;;;;;14.94;100.00;97309.47;4117482;28;20301;-46
2023/09/21 05:38:13;;;;;;;1.15;0.73;;;;;;;14.95;100.00;97306.41;4138091;28;20245;-46
2023/09/21 05:40:16;;;;;;;1.65;1.17;;;;;;;15.10;100.00;97306.06;4125064;28;20273;-45
2023/09/21 05:42:18;;;;;;;1.23;0.80;;;;;;;15.12;100.00;97309.34;4126207;28;20202;-45
2023/09/21 05:44:25;;;;;;;0.80;0.70;;;;;;;15.15;100.00;97305.97;4123228;28;20741;-45
2023/09/21 05:46:27;;;;;;;1.13;0.70;;;;;;;15.09;100.00;97300.91;4118113;28;20745;-45
2023/09/21 05:48:29;;;;;;;0.98;0.70;;;;;;;15.24;100.00;97303.31;4100753;28;20215;-46
2023/09/21 05:50:31;;;;;;;3.55;1.55;;;;;;;15.33;100.00;97307.00;4142278;28;20685;-45
2023/09/21 05:52:35;;;;;;;11.82;0.80;;;;;;;15.34;100.00;97305.84;4142946;28;20205;-45
2023/09/21 05:54:37;;;;;;;0.60;0.60;;;;;;;15.69;100.00;97305.06;4130136;28;20234;-45
2023/09/21 05:56:39;;;;;;;0.50;0.50;;;;;;;15.73;100.00;97301.34;4140934;28;20713;-45
2023/09/21 05:58:41;;;;;;;1.00;0.70;;;;;;;15.76;100.00;97306.25;4124661;28;20548;-46
2023/09/21 06:00:43;;;;;;;0.70;0.70;;;;;;;15.83;100.00;97306.63;4113568;28;20210;-45
2023/09/21 06:02:45;;;;;;;0.50;0.50;;;;;;;15.79;100.00;97311.16;4129810;28;20216;-46
2023/09/21 06:04:47;;;;;;;1.10;0.60;;;;;;;15.78;100.00;97309.53;4125541;28;22105;-45
2023/09/21 06:06:49;;;;;;;3.05;0.90;;;;;;;15.76;100.00;97311.75;4125246;28;20208;-45
2023/09/21 06:08:52;;;;;;;0.73;0.65;;;;;;;15.75;100.00;97309.31;4132521;28;20199;-45
2023/09/21 06:10:53;;;;;;;1.17;0.65;;;;;;;15.80;100.00;97315.53;4123943;28;20704;-46
2023/09/21 06:12:56;;;;;;;4.32;0.85;;;;;;;15.76;100.00;97322.78;4118740;28;20695;-45
2023/09/21 06:14:58;;;;;;;1.33;0.80;;;;;;;15.75;100.00;97312.09;4122313;28;20233;-46
2023/09/21 06:17:00;;;;;;;1.08;0.75;;;;;;;15.80;100.00;97312.78;4119602;28;20210;-46
2023/09/21 06:19:02;;;;;;;1.35;1.20;;;;;;;15.82;100.00;97321.53;4139116;28;20226;-45
2023/09/21 06:21:06;;;;;;;0.68;0.60;;;;;;;15.79;100.00;97316.66;4126382;28;20217;-46
2023/09/21 06:23:08;;;;;;;0.80;0.80;;;;;;;15.82;100.00;97312.47;4127093;28;20206;-47
2023/09/21 06:25:11;;;;;;;0.70;0.70;;;;;;;15.87;100.00;97312.31;4131882;28;20285;-45
2023/09/21 06:27:14;;;;;;;0.77;0.60;;;;;;;15.89;100.00;97316.41;4122890;28;20198;-45
2023/09/21 06:29:16;;;;;;;0.85;0.85;;;;;;;16.02;100.00;97312.75;4121972;28;20708;-46
2023/09/21 06:31:21;;;;;;;4.63;0.55;;;;;;;16.22;100.00;97315.00;4141720;28;20264;-45
2023/09/21 06:33:26;;;;;;;0.60;0.60;;;;;;;16.42;100.00;97306.22;4130629;28;20202;-45
2023/09/21 06:35:31;;;;;;;1.23;0.68;;;;;;;16.48;100.00;97307.72;4133195;28;20230;-46
2023/09/21 06:37:39;;;;;;;0.60;0.60;;;;;;;16.70;100.00;97310.41;4183400;23;20325;-63
2023/09/21 06:39:42;;;;;;;1.63;0.40;;;;;;;16.83;100.00;97309.50;4225791;23;20383;-64
2023/09/21 06:41:47;;;;;;;1.13;0.45;;;;;;;16.87;100.00;97316.03;4125766;28;20242;-62
2023/09/21 06:43:50;;;;;;;0.52;0.45;;;;;;;16.90;100.00;97320.09;4128241;28;20225;-62
2023/09/21 06:45:52;;;;;;;0.50;0.50;;;;;;;16.98;100.00;97317.38;4129630;28;20299;-61
2023/09/21 06:47:54;;;;;;;0.60;0.60;;;;;;;17.08;100.00;97317.06;4127591;28;20828;-62
2023/09/21 06:49:56;;;;;;;0.65;0.60;;;;;;;17.16;100.00;97319.03;4131475;28;20244;-62
2023/09/21 06:51:59;;;;;;;8.73;0.57;;;;;;;17.20;100.00;97309.78;4129588;28;20234;-62
2023/09/21 06:54:01;;;;;;;0.93;0.70;;;;;;;17.28;100.00;97316.47;4132048;28;20217;-62
2023/09/21 06:56:04;;;;;;;1.20;0.50;;;;;;;17.26;100.00;97313.22;4133119;28;20296;-62
2023/09/21 06:58:08;;;;;;;0.73;0.57;;;;;;;17.28;100.00;97299.88;4130364;28;20229;-61
2023/09/21 07:00:10;;;;;;;1.23;0.70;;;;;;;17.25;100.00;97312.41;4128166;28;20709;-62
2023/09/21 07:02:13;;;;;;;0.70;0.70;;;;;;;17.20;100.00;97308.97;4133163;28;20583;-62
2023/09/21 07:04:17;;;;;;;1.17;0.70;;;;;;;17.21;100.00;97299.53;4132140;28;20262;-62
2023/09/21 07:06:20;;;;;;;0.43;0.43;;;;;;;17.22;100.00;97295.63;4116283;28;20207;-62
2023/09/21 07:08:22;;;;;;;0.93;0.63;;;;;;;17.19;100.00;97299.06;4132430;28;20206;-62
2023/09/21 07:10:24;;;;;;;0.60;0.60;;;;;;;17.20;100.00;97306.22;4130762;28;20209;-62
2023/09/21 07:12:28;;;;;;;0.93;0.60;;;;;;;17.16;100.00;97302.44;4244957;23;20245;-62
2023/09/21 07:14:34;;;;;;;2.92;0.63;;;;;;;17.17;100.00;97298.53;4114684;28;20251;-62
2023/09/21 07:16:36;;;;;;;2.00;0.60;;;;;;;17.19;100.00;97290.75;4118267;28;20323;-62
2023/09/21 07:18:43;;;;;;;0.50;0.50;;;;;;;17.18;100.00;97283.63;4132348;28;20210;-62
2023/09/21 07:20:46;;;;;;;0.98;0.88;;;;;;;17.16;100.00;97285.88;4115413;28;20233;-62
2023/09/21 07:22:49;;;;;;;0.38;0.30;;;;;;;17.14;100.00;97282.63;4133612;28;20202;-62
2023/09/21 07:24:51;;;;;;;0.52;0.50;;;;;;;17.16;100.00;97280.34;4147166;28;20761;-62
2023/09/21 07:26:53;;;;;;;4.35;1.02;;;;;;;17.14;100.00;97282.63;4132437;28;20206;-62
2023/09/21 07:28:57;;;;;;;1.65;0.70;;;;;;;17.19;100.00;97285.22;4299109;23;20225;-64
2023/09/21 07:31:01;;;;;;;1.98;0.50;;;;;;;17.23;100.00;97275.13;4160038;28;20240;-64
2023/09/21 07:33:06;;;;;;;1.83;0.95;;;;;;;17.26;100.00;97277.28;4128482;28;20309;-64
2023/09/21 07:35:14;;;;;;;0.50;0.50;;;;;;;17.31;100.00;97274.38;4144888;28;20213;-64
2023/09/21 07:37:16;;;;;;;0.93;0.85;;;;;;;17.41;100.00;97277.66;4140758;28;20213;-64
2023/09/21 07:39:18;;;;;;;1.75;1.02;;;;;;;17.51;100.00;97274.56;4144117;28;20670;-64
2023/09/21 07:41:20;;;;;;;0.88;0.50;;;;;;;17.65;100.00;97263.34;4162229;28;20243;-63
2023/09/21 07:43:22;;;;;;;0.60;0.60;;;;;;;17.74;100.00;97266.91;4143277;28;20236;-62
2023/09/21 07:45:24;;;;;;;0.95;0.60;;;;;;;17.82;100.00;97257.78;4142983;28;20698;-62
2023/09/21 07:47:27;;;;;;;1.67;0.85;;;;;;;17.91;100.00;97253.88;4160899;28;20234;-63
2023/09/21 07:49:31;;;;;;;1.42;0.73;;;;;;;17.99;100.00;97252.25;4161585;28;20205;-64
2023/09/21 07:51:34;;;;;;;0.68;0.68;;;;;;;18.14;100.00;97251.72;4143056;28;20260;-63
2023/09/21 07:53:40;;;;;;;1.08;0.55;;;;;;;18.28;100.00;97246.78;4140415;28;20690;-63
2023/09/21 07:55:45;;;;;;;0.65;0.57;;;;;;;18.42;100.00;97247.44;4143873;28;20299;-63
2023/09/21 07:57:48;;;;;;;0.70;0.70;;;;;;;18.54;100.00;97247.56;4163044;28;20201;-63
2023/09/21 07:59:50;;;;;;;0.60;0.60;;;;;;;18.70;99.58;97248.63;4128026;28;20233;-63
2023/09/21 08:01:56;;;;;;;0.55;0.55;;;;;;;19.20;97.35;97253.13;4164554;28;20597;-62
2023/09/21 08:03:58;;;;;;;1.02;0.60;;;;;;;19.80;93.36;97249.88;4127205;28;20209;-63
2023/09/21 08:06:01;;;;;;;0.65;0.60;;;;;;;20.70;92.98;97248.81;4177264;23;1329177;-63
2023/09/21 08:08:05;;;;;;;1.73;0.63;;;;;;;20.68;87.22;97249.13;4117260;28;20216;-63
2023/09/21 08:10:10;;;;;;;0.80;0.60;;;;;;;20.64;90.02;97247.41;4209461;23;20199;-63
2023/09/21 08:12:13;;;;;;;0.57;0.50;;;;;;;20.83;87.07;97244.84;4097100;28;20242;-63
2023/09/21 08:14:16;;;;;;;0.88;0.40;;;;;;;21.37;86.86;97238.72;4098333;29;20207;-62
2023/09/21 08:16:19;;;;;;;0.50;0.50;;;;;;;21.38;80.12;97239.53;4080830;29;20203;-62
2023/09/21 08:18:23;;;;;;;0.40;0.40;;;;;;;21.03;80.60;97235.59;4099460;29;20203;-63
2023/09/21 08:20:26;;;;;;;0.77;0.40;;;;;;;21.21;81.36;97234.22;4099046;28;20231;-62
2023/09/21 08:22:30;;;;;;;3.28;0.40;;;;;;;21.35;81.25;97240.22;4094588;29;20258;-62
2023/09/21 08:24:34;;;;;;;0.93;0.30;;;;;;;21.53;79.74;97236.03;4097565;29;20207;-62
2023/09/21 08:26:40;;;;;;;0.60;0.60;;;;;;;21.67;78.56;97240.09;4115548;28;20233;-63
2023/09/21 08:28:43;;;;;;;0.35;0.35;;;;;;;21.58;77.43;97238.56;4098988;28;20206;-63
2023/09/21 08:30:47;;;;;;;0.80;0.50;;;;;;;21.95;76.38;97234.50;4098702;28;20282;-62
2023/09/21 08:32:49;;;;;;;0.30;0.30;;;;;;;22.16;77.96;97237.91;4080921;29;20204;-62
2023/09/21 08:34:51;;;;;;;0.98;0.57;;;;;;;22.27;75.00;97244.59;4095766;29;20312;-63
2023/09/21 08:36:53;;;;;;;0.60;0.35;;;;;;;22.25;74.71;97235.78;4095597;29;20278;-63
2023/09/21 08:38:55;;;;;;;0.70;0.70;;;;;;;22.56;74.46;97219.94;4096077;28;20207;-62
2023/09/21 08:40:59;;;;;;;0.63;0.63;;;;;;;22.90;72.87;97233.16;4093510;29;20717;-62
2023/09/21 08:43:01;;;;;;;0.30;0.28;;;;;;;22.77;71.33;97225.25;4094612;28;20831;-62
2023/09/21 08:45:09;;;;;;;0.55;0.30;;;;;;;22.70;71.67;97230.66;4093851;29;20222;-62
2023/09/21 08:47:15;;;;;;;1.13;0.40;;;;;;;22.89;71.58;97223.19;4094799;29;20202;-62
2023/09/21 08:49:35;;;;;;;0.25;0.25;;;;;;;22.89;72.38;97228.75;4292456;23;20659;-62
2023/09/21 08:51:40;;;;;;;4.80;0.50;;;;;;;22.24;71.50;97228.59;4138683;28;20623;-63
2023/09/21 08:53:50;;;;;;;2.95;0.40;;;;;;;22.11;72.52;97229.81;4136617;28;20217;-62
2023/09/21 08:56:08;;;;;;;0.30;0.30;;;;;;;22.24;73.01;97220.22;4137434;28;20204;-64
2023/09/21 08:58:12;;;;;;;0.20;0.20;;;;;;;22.02;73.29;97216.03;4123847;28;20213;-64
2023/09/21 09:00:16;;;;;;;0.55;0.52;;;;;;;22.10;73.34;97217.84;4127282;28;20229;-64
2023/09/21 09:02:18;;;;;;;1.48;0.38;;;;;;;22.70;73.69;97208.34;4125101;28;20623;-64
2023/09/21 09:04:20;;;;;;;4.68;0.40;;;;;;;23.29;69.13;97211.78;4136520;28;20213;-64
2023/09/21 09:06:24;;;;;;;0.80;0.30;;;;;;;23.67;68.12;97216.28;4124520;28;20209;-64
2023/09/21 09:08:27;;;;;;;0.32;0.32;;;;;;;23.77;66.68;97215.72;4125734;28;20217;-63
2023/09/21 09:10:29;;;;;;;0.60;0.52;;;;;;;23.67;65.83;97216.28;4122087;28;20205;-64
2023/09/21 09:12:32;;;;;;;0.30;0.30;;;;;;;23.61;64.96;97204.94;4122456;28;20230;-64
2023/09/21 09:14:34;;;;;;;0.30;0.20;;;;;;;24.07;65.72;97202.78;4121714;28;20268;-64
2023/09/21 09:16:36;;;;;;;0.38;0.30;;;;;;;24.61;62.49;97191.47;4119630;28;20209;-65
2023/09/21 09:18:38;;;;;;;0.30;0.30;;;;;;;24.22;62.76;97203.88;4133908;28;20236;-64
2023/09/21 09:20:42;;;;;;;0.40;0.40;;;;;;;23.98;62.86;97186.63;4140406;28;20675;-64
2023/09/21 09:22:43;;;;;;;0.77;0.35;;;;;;;23.96;61.81;97189.78;4121234;28;20285;-65
2023/09/21 09:24:47;;;;;;;0.20;0.20;;;;;;;23.93;62.72;97182.94;4127455;28;20736;-64
2023/09/21 09:26:49;;;;;;;0.35;0.30;;;;;;;23.65;63.70;97177.91;4134906;28;20210;-64
2023/09/21 09:29:02;;;;;;;0.40;0.40;;;;;;;23.24;64.65;97186.97;4139522;28;20213;-64
2023/09/21 09:31:10;;;;;;;0.20;0.20;;;;;;;23.35;65.09;97182.41;4122793;28;20222;-64
2023/09/21 09:33:15;;;;;;;0.32;0.30;;;;;;;23.09;65.52;97184.97;4123562;28;20820;-65
2023/09/21 09:35:17;;;;;;;1.00;0.63;;;;;;;23.34;66.50;97190.00;4140721;28;20208;-64
2023/09/21 09:37:19;;;;;;;0.40;0.30;;;;;;;22.97;65.11;97190.69;4129307;28;20205;-64